Time;durP1;ratioP1;P1;durP2;ratioP2;P2;SDS_P1;SDS_P2;PMS_P1;PMS_P2;Temp;Humidity;BMP_temperature;BMP_pressure;BME280_temperature;BME280_humidity;BME280_pressure;Samples;Min_cycle;Max_cycle;Signal;HPM_P1;HPM_P2
2023/01/01 00:00:15;;;;;;;40.67;17.60;;;12.90;99.90;;;;;;7402956;19;19946;-70
2023/01/01 00:02:44;;;;;;;23.08;10.45;;;12.80;99.90;;;;;;7401162;19;19918;-71
2023/01/01 00:05:13;;;;;;;35.80;17.35;;;12.70;99.90;;;;;;7403211;19;19922;-70
2023/01/01 00:07:43;;;;;;;17.08;8.90;;;12.70;99.90;;;;;;7405349;19;19954;-70
2023/01/01 00:10:30;;;;;;;17.85;9.45;;;12.70;99.90;;;;;;7403304;19;19936;-70
2023/01/01 00:12:59;;;;;;;29.15;13.25;;;12.60;99.90;;;;;;7403158;19;19978;-70
2023/01/01 00:15:29;;;;;;;18.65;9.73;;;12.50;99.90;;;;;;7403261;19;20352;-70
2023/01/01 00:17:59;;;;;;;31.05;15.23;;;12.30;99.90;;;;;;7401546;19;19982;-70
2023/01/01 00:20:28;;;;;;;16.50;7.20;;;12.30;99.90;;;;;;7402562;19;19929;-70
2023/01/01 00:22:57;;;;;;;16.52;7.07;;;12.30;99.90;;;;;;7402834;19;19918;-71
2023/01/01 00:25:31;;;;;;;16.67;7.95;;;12.30;99.90;;;;;;7402637;19;20305;-70
2023/01/01 00:28:00;;;;;;;16.88;7.63;;;12.20;99.90;;;;;;7402919;19;19988;-70
2023/01/01 00:30:29;;;;;;;42.35;8.75;;;12.20;99.90;;;;;;7402496;19;19919;-70
2023/01/01 00:32:58;;;;;;;20.13;11.38;;;12.00;99.90;;;;;;7402231;19;19919;-70
2023/01/01 00:35:27;;;;;;;15.80;8.32;;;12.00;99.90;;;;;;7403650;19;20001;-71
2023/01/01 00:37:57;;;;;;;20.13;11.50;;;11.90;99.90;;;;;;7411221;19;19927;-71
2023/01/01 00:40:30;;;;;;;24.35;12.73;;;11.80;99.90;;;;;;7408147;19;19914;-70
2023/01/01 00:42:59;;;;;;;26.50;14.07;;;11.90;99.90;;;;;;7408753;19;19974;-71
2023/01/01 00:45:28;;;;;;;30.25;15.35;;;11.80;99.90;;;;;;7405954;19;19918;-71
2023/01/01 00:47:57;;;;;;;26.40;13.77;;;11.70;99.90;;;;;;7408471;19;19918;-71
2023/01/01 00:50:26;;;;;;;33.08;16.55;;;11.90;99.90;;;;;;7408920;19;20245;-71
2023/01/01 00:52:55;;;;;;;27.77;16.27;;;11.60;99.90;;;;;;7408507;19;19974;-71
2023/01/01 00:55:24;;;;;;;33.47;16.90;;;11.50;99.90;;;;;;7408617;19;20238;-70
2023/01/01 00:57:56;;;;;;;27.38;14.65;;;11.60;99.90;;;;;;7406808;19;19919;-70
2023/01/01 01:00:25;;;;;;;149.02;80.80;;;11.60;99.90;;;;;;7408559;19;20335;-71
2023/01/01 01:02:53;;;;;;;20.45;12.35;;;11.50;99.90;;;;;;7408454;19;19946;-71
2023/01/01 01:05:23;;;;;;;33.03;16.20;;;11.50;99.90;;;;;;7409012;19;19950;-71
2023/01/01 01:07:52;;;;;;;23.02;11.10;;;11.40;99.90;;;;;;7408687;19;20336;-71
2023/01/01 01:10:21;;;;;;;23.90;11.95;;;11.40;99.90;;;;;;7407988;19;20254;-71
2023/01/01 01:12:50;;;;;;;22.50;10.20;;;11.50;99.90;;;;;;7408504;19;19915;-70
2023/01/01 01:15:23;;;;;;;17.13;10.35;;;11.50;99.90;;;;;;7408143;19;19943;-71
2023/01/01 01:17:52;;;;;;;25.08;9.85;;;11.50;99.90;;;;;;7410908;19;19914;-71
2023/01/01 01:20:22;;;;;;;22.77;10.23;;;11.60;99.90;;;;;;7407715;19;19925;-71
2023/01/01 01:23:01;;;;;;;14.57;9.55;;;11.70;99.90;;;;;;7408395;19;19915;-70
2023/01/01 01:25:30;;;;;;;24.83;10.80;;;11.70;99.90;;;;;;7407809;19;19925;-70
2023/01/01 01:27:59;;;;;;;22.75;11.27;;;11.70;99.90;;;;;;7407728;19;19910;-72
2023/01/01 01:30:30;;;;;;;21.20;11.68;;;11.90;99.90;;;;;;7408178;19;19923;-70
2023/01/01 01:33:01;;;;;;;23.92;12.52;;;12.00;99.90;;;;;;7407153;19;19962;-71
2023/01/01 01:35:31;;;;;;;23.92;11.85;;;12.00;99.90;;;;;;7409851;19;20244;-70
2023/01/01 01:38:01;;;;;;;26.48;11.55;;;12.00;99.90;;;;;;7406246;19;20347;-70
2023/01/01 01:40:31;;;;;;;22.65;11.90;;;12.00;99.90;;;;;;7406485;19;19922;-70
2023/01/01 01:43:00;;;;;;;23.63;10.38;;;12.00;99.90;;;;;;7407917;19;19922;-71
2023/01/01 01:45:32;;;;;;;22.48;11.68;;;12.20;99.90;;;;;;7404953;19;19914;-70
2023/01/01 01:48:03;;;;;;;22.73;12.18;;;12.10;99.90;;;;;;7406662;19;20306;-70
2023/01/01 01:50:41;;;;;;;;;;;12.00;99.90;;;;;;7409353;19;19918;-70
2023/01/01 01:53:14;;;;;;;24.98;12.20;;;11.90;99.90;;;;;;7407212;19;20321;-70
2023/01/01 01:55:46;;;;;;;25.13;11.10;;;11.90;99.90;;;;;;7407008;19;19946;-70
2023/01/01 01:58:17;;;;;;;29.13;11.77;;;11.80;99.90;;;;;;7405246;19;19915;-70
2023/01/01 02:00:50;;;;;;;22.15;11.57;;;11.80;99.90;;;;;;7407795;19;20587;-71
2023/01/01 02:03:23;;;;;;;19.85;11.00;;;11.80;99.90;;;;;;7406168;19;19931;-71
2023/01/01 02:05:53;;;;;;;21.45;11.45;;;11.80;99.90;;;;;;7407300;19;19915;-70
2023/01/01 02:08:23;;;;;;;24.80;11.45;;;11.70;99.90;;;;;;7407176;19;19918;-70
2023/01/01 02:10:52;;;;;;;26.98;11.88;;;11.70;99.90;;;;;;7406935;19;19921;-70
2023/01/01 02:13:21;;;;;;;22.50;11.13;;;11.80;99.90;;;;;;7406413;19;19966;-70
2023/01/01 02:15:56;;;;;;;25.67;12.27;;;11.90;99.90;;;;;;7406610;19;19930;-70
2023/01/01 02:18:31;;;;;;;17.48;9.93;;;11.80;99.90;;;;;;7405383;19;19915;-70
2023/01/01 02:21:05;;;;;;;19.95;10.18;;;12.00;99.90;;;;;;7406494;19;19970;-71
2023/01/01 02:23:54;;;;;;;18.02;9.43;;;11.80;99.90;;;;;;7406503;19;19915;-70
2023/01/01 02:26:41;;;;;;;20.30;9.65;;;11.80;99.90;;;;;;7407085;19;19942;-70
2023/01/01 02:29:30;;;;;;;18.83;9.35;;;12.00;99.90;;;;;;7406201;19;19918;-70
2023/01/01 02:32:03;;;;;;;19.98;9.70;;;11.90;99.90;;;;;;7406373;19;20396;-70
2023/01/01 02:34:37;;;;;;;19.70;9.82;;;12.00;99.90;;;;;;7408678;19;19927;-70
2023/01/01 02:37:09;;;;;;;20.00;9.68;;;12.00;99.90;;;;;;7406445;19;19934;-70
2023/01/01 02:39:44;;;;;;;22.17;9.35;;;12.00;99.90;;;;;;7405811;19;19932;-69
2023/01/01 02:42:14;;;;;;;20.02;7.82;;;11.90;99.90;;;;;;7401970;19;20269;-69
2023/01/01 02:44:49;;;;;;;19.17;10.68;;;12.00;99.90;;;;;;7404289;19;20312;-70
2023/01/01 02:47:20;;;;;;;20.00;9.20;;;11.90;99.90;;;;;;7405610;19;20336;-70
2023/01/01 02:49:57;;;;;;;16.65;9.10;;;12.10;99.90;;;;;;7405631;19;20278;-72
2023/01/01 02:52:53;;;;;;;19.48;8.68;;;11.90;99.90;;;;;;7405472;19;20702;-71
2023/01/01 02:55:38;;;;;;;16.48;8.43;;;12.00;99.90;;;;;;7405633;19;19922;-70
2023/01/01 03:01:07;;;;;;;18.95;7.18;;;12.10;99.90;;;;;;7404942;19;19982;-70
2023/01/01 03:03:43;;;;;;;18.20;7.70;;;12.10;99.90;;;;;;7404613;19;20496;-70
2023/01/01 03:06:26;;;;;;;17.05;8.18;;;12.10;99.90;;;;;;7408908;19;19914;-70
2023/01/01 03:09:07;;;;;;;17.52;8.55;;;12.10;99.90;;;;;;7405412;19;19915;-70
2023/01/01 03:11:44;;;;;;;15.60;7.90;;;12.00;99.90;;;;;;7405102;19;19926;-71
2023/01/01 03:14:20;;;;;;;15.10;6.47;;;12.10;99.90;;;;;;7404947;19;20290;-71
2023/01/01 03:16:56;;;;;;;18.40;7.47;;;12.10;99.90;;;;;;7404973;19;19920;-70
2023/01/01 03:19:27;;;;;;;17.08;6.10;;;12.30;99.90;;;;;;7403600;19;19918;-70
2023/01/01 03:22:00;;;;;;;13.85;5.68;;;12.20;99.90;;;;;;7404557;19;19918;-70
2023/01/01 03:24:34;;;;;;;13.82;5.80;;;12.20;99.90;;;;;;7403128;19;19925;-70
2023/01/01 03:27:09;;;;;;;15.27;5.38;;;12.30;99.90;;;;;;7404029;19;19915;-71
2023/01/01 03:29:42;;;;;;;14.43;5.80;;;12.30;99.90;;;;;;7404875;19;19934;-71
2023/01/01 03:32:20;;;;;;;14.70;6.45;;;12.20;99.90;;;;;;7403880;19;19922;-72
2023/01/01 03:34:51;;;;;;;;;;;12.20;99.90;;;;;;7406386;19;19926;-71
2023/01/01 03:37:25;;;;;;;13.43;6.20;;;12.30;99.90;;;;;;7403898;19;20360;-70
2023/01/01 03:39:59;;;;;;;12.90;5.13;;;12.20;99.90;;;;;;7403793;19;20237;-70
2023/01/01 03:42:33;;;;;;;15.32;4.88;;;12.20;99.90;;;;;;7403908;19;20275;-71
2023/01/01 03:45:06;;;;;;;14.27;4.70;;;12.20;99.90;;;;;;7402376;19;19971;-71
2023/01/01 03:47:39;;;;;;;10.60;3.78;;;12.20;99.90;;;;;;7404031;19;19918;-71
2023/01/01 03:50:09;;;;;;;11.15;4.38;;;12.30;99.90;;;;;;7404374;19;19914;-71
2023/01/01 03:52:48;;;;;;;9.93;4.07;;;12.60;99.90;;;;;;7404408;19;20301;-71
2023/01/01 03:55:22;;;;;;;8.80;3.30;;;12.50;99.90;;;;;;7403487;19;19915;-70
2023/01/01 03:57:59;;;;;;;6.50;2.92;;;12.50;99.90;;;;;;7403350;19;20284;-70
2023/01/01 04:00:33;;;;;;;6.75;3.15;;;12.30;99.90;;;;;;7403798;19;19915;-70
2023/01/01 04:03:23;;;;;;;10.68;3.00;;;12.30;99.90;;;;;;7403405;19;20429;-70
2023/01/01 04:05:53;;;;;;;11.77;3.50;;;12.30;99.90;;;;;;7403426;19;19974;-71
2023/01/01 04:08:26;;;;;;;11.27;3.72;;;12.30;99.90;;;;;;7403607;19;19944;-71
2023/01/01 04:10:58;;;;;;;9.35;2.53;;;12.30;99.90;;;;;;7403836;19;19915;-70
2023/01/01 04:13:27;;;;;;;8.90;2.70;;;12.30;99.90;;;;;;7403163;19;19925;-70
2023/01/01 04:15:56;;;;;;;7.60;2.97;;;12.30;99.90;;;;;;7402827;19;19925;-70
2023/01/01 04:18:28;;;;;;;7.43;2.97;;;12.20;99.90;;;;;;7402235;19;19921;-70
2023/01/01 04:20:57;;;;;;;6.03;2.90;;;12.10;99.90;;;;;;7402384;19;19911;-70
2023/01/01 04:23:25;;;;;;;9.25;3.25;;;11.90;99.90;;;;;;7403334;19;19923;-71
2023/01/01 04:25:54;;;;;;;10.68;3.25;;;11.90;99.90;;;;;;7402856;19;19978;-70
2023/01/01 04:28:23;;;;;;;9.30;2.95;;;11.70;99.90;;;;;;7402671;19;19926;-70
2023/01/01 04:30:52;;;;;;;7.47;2.63;;;11.60;99.90;;;;;;7402486;19;19932;-71
2023/01/01 04:33:31;;;;;;;10.88;2.72;;;11.50;99.90;;;;;;7405861;19;20332;-70
2023/01/01 04:36:05;;;;;;;12.18;2.60;;;11.40;99.90;;;;;;7402505;19;19935;-71
2023/01/01 04:38:35;;;;;;;9.18;3.85;;;11.30;99.90;;;;;;7401558;19;19930;-70
2023/01/01 04:41:07;;;;;;;9.48;3.05;;;11.30;99.90;;;;;;7400832;19;19922;-71
2023/01/01 04:43:37;;;;;;;9.50;3.50;;;11.00;99.90;;;;;;7401745;19;19949;-70
2023/01/01 04:46:06;;;;;;;9.73;3.65;;;11.00;99.90;;;;;;7402371;19;19915;-71
2023/01/01 04:48:38;;;;;;;15.07;3.60;;;10.80;99.90;;;;;;7402087;19;19938;-70
2023/01/01 04:51:07;;;;;;;7.63;3.20;;;10.80;99.90;;;;;;7402148;19;19970;-69
2023/01/01 04:53:37;;;;;;;10.00;3.60;;;10.70;99.90;;;;;;7402495;19;20359;-70
2023/01/01 04:56:07;;;;;;;8.55;3.05;;;10.60;99.90;;;;;;7401724;19;20336;-70
2023/01/01 04:58:37;;;;;;;9.02;3.08;;;10.60;99.90;;;;;;7401351;19;19947;-70
2023/01/01 05:01:07;;;;;;;10.55;3.70;;;10.70;99.90;;;;;;7401551;19;19954;-70
2023/01/01 05:03:39;;;;;;;10.88;2.75;;;10.80;99.90;;;;;;7404764;19;19922;-70
2023/01/01 05:06:10;;;;;;;7.97;2.58;;;10.80;99.90;;;;;;7401726;19;19958;-70
2023/01/01 05:08:41;;;;;;;8.98;2.88;;;10.70;99.90;;;;;;7401443;19;19934;-70
2023/01/01 05:11:13;;;;;;;9.75;2.40;;;11.00;99.90;;;;;;7401064;19;19914;-70
2023/01/01 05:13:43;;;;;;;8.90;1.95;;;10.90;99.90;;;;;;7400800;19;19918;-70
2023/01/01 05:16:15;;;;;;;8.13;1.95;;;11.10;99.90;;;;;;7401343;19;19923;-70
2023/01/01 05:18:47;;;;;;;10.13;2.45;;;11.10;99.90;;;;;;7400070;19;19974;-70
2023/01/01 05:21:18;;;;;;;10.35;1.77;;;11.30;99.90;;;;;;7402218;19;20039;-70
2023/01/01 05:23:47;;;;;;;3.28;1.90;;;11.40;99.90;;;;;;7407797;19;19911;-70
2023/01/01 05:26:17;;;;;;;8.85;1.92;;;11.50;99.90;;;;;;7408103;19;19990;-70
2023/01/01 05:28:47;;;;;;;6.90;2.33;;;11.30;99.90;;;;;;7407687;19;19938;-70
2023/01/01 05:31:19;;;;;;;5.60;1.52;;;11.50;99.90;;;;;;7408736;19;19926;-70
2023/01/01 05:33:53;;;;;;;5.55;1.80;;;11.40;99.90;;;;;;7407516;19;19938;-70
2023/01/01 05:36:25;;;;;;;7.78;2.17;;;11.50;99.90;;;;;;7407817;19;19982;-70
2023/01/01 05:38:54;;;;;;;8.85;1.63;;;11.50;99.90;;;;;;7407157;19;19914;-70
2023/01/01 05:41:24;;;;;;;3.83;1.50;;;11.50;99.90;;;;;;7405459;19;19922;-70
2023/01/01 05:43:54;;;;;;;5.38;1.50;;;11.60;99.90;;;;;;7406784;19;20344;-70
2023/01/01 05:46:25;;;;;;;7.78;1.80;;;11.50;99.90;;;;;;7407576;19;19911;-70
2023/01/01 05:48:57;;;;;;;7.50;1.90;;;11.60;99.90;;;;;;7407409;19;19927;-70
2023/01/01 05:51:28;;;;;;;7.75;1.67;;;11.50;99.90;;;;;;7407374;19;19911;-70
2023/01/01 05:53:57;;;;;;;5.53;1.55;;;11.60;99.90;;;;;;7406998;19;20249;-69
2023/01/01 05:56:28;;;;;;;3.53;1.40;;;11.60;99.90;;;;;;7405587;19;20357;-71
2023/01/01 05:58:58;;;;;;;4.05;1.55;;;11.70;99.90;;;;;;7406510;19;20302;-70
2023/01/01 06:01:29;;;;;;;4.90;1.20;;;11.50;99.90;;;;;;7409167;19;20378;-70
2023/01/01 06:04:01;;;;;;;2.85;1.10;;;11.70;99.90;;;;;;7406864;19;19911;-70
2023/01/01 06:06:32;;;;;;;3.03;0.80;;;11.60;99.90;;;;;;7406576;19;19930;-69
2023/01/01 06:09:07;;;;;;;3.97;0.95;;;11.70;99.90;;;;;;7406942;19;19915;-70
2023/01/01 06:11:36;;;;;;;2.60;1.15;;;11.30;99.90;;;;;;7406427;19;19921;-70
2023/01/01 06:14:05;;;;;;;3.60;1.00;;;11.80;99.90;;;;;;7406640;19;19911;-71
2023/01/01 06:16:34;;;;;;;9.90;1.60;;;11.70;99.90;;;;;;7406462;19;20230;-70
2023/01/01 06:19:05;;;;;;;5.38;0.98;;;11.60;99.90;;;;;;7405710;19;19944;-71
2023/01/01 06:21:37;;;;;;;4.80;1.10;;;11.80;99.90;;;;;;7406043;19;19974;-70
2023/01/01 06:24:07;;;;;;;2.42;0.88;;;11.60;99.90;;;;;;7406175;19;20572;-70
2023/01/01 06:26:36;;;;;;;3.80;0.90;;;11.70;99.90;;;;;;7406532;19;19932;-70
2023/01/01 06:29:05;;;;;;;5.57;1.02;;;11.60;99.90;;;;;;7405688;19;19918;-72
2023/01/01 06:31:34;;;;;;;6.28;1.80;;;11.70;99.90;;;;;;7408904;19;20366;-71
2023/01/01 06:34:06;;;;;;;2.72;0.85;;;11.60;99.90;;;;;;7402494;19;19918;-70
2023/01/01 06:36:35;;;;;;;;;;;11.60;99.90;;;;;;7409124;19;19974;-71
2023/01/01 06:39:05;;;;;;;3.38;0.60;;;11.60;99.90;;;;;;7405813;19;19927;-70
2023/01/01 06:41:34;;;;;;;4.97;0.50;;;11.50;99.90;;;;;;7404158;19;20237;-70
2023/01/01 06:44:04;;;;;;;5.60;0.70;;;11.60;99.90;;;;;;7405013;19;19926;-70
2023/01/01 06:46:35;;;;;;;5.57;0.60;;;11.60;99.90;;;;;;7405329;19;19914;-70
2023/01/01 06:49:09;;;;;;;4.00;0.90;;;11.50;99.90;;;;;;7405912;19;19984;-70
2023/01/01 06:51:41;;;;;;;3.28;0.77;;;11.50;99.90;;;;;;7405763;19;20392;-70
2023/01/01 06:54:11;;;;;;;2.05;0.40;;;11.40;99.90;;;;;;7405268;19;19922;-70
2023/01/01 06:56:40;;;;;;;4.53;0.77;;;11.50;99.90;;;;;;7405650;19;19926;-70
2023/01/01 06:59:13;;;;;;;2.08;0.45;;;11.40;99.90;;;;;;7405643;19;19919;-70
2023/01/01 07:01:41;;;;;;;1.95;0.32;;;11.40;99.90;;;;;;7403494;19;19996;-70
2023/01/01 07:04:14;;;;;;;2.75;0.50;;;11.30;99.90;;;;;;7405014;19;19925;-70
2023/01/01 07:06:44;;;;;;;2.90;0.73;;;11.30;99.90;;;;;;7405346;19;19915;-70
2023/01/01 07:09:13;;;;;;;2.72;0.60;;;11.40;99.90;;;;;;7405093;19;19935;-70
2023/01/01 07:11:42;;;;;;;2.28;0.90;;;11.30;99.90;;;;;;7405157;19;19911;-70
2023/01/01 07:14:14;;;;;;;5.82;0.88;;;11.30;99.90;;;;;;7404817;19;20309;-71
2023/01/01 07:16:42;;;;;;;2.25;0.60;;;11.30;99.90;;;;;;7404669;19;19919;-71
2023/01/01 07:19:14;;;;;;;4.63;0.88;;;11.30;99.90;;;;;;7403964;19;19978;-70
2023/01/01 07:21:46;;;;;;;2.97;1.00;;;11.10;99.90;;;;;;7404749;19;19930;-70
2023/01/01 07:24:16;;;;;;;3.78;0.77;;;11.10;99.90;;;;;;7404886;19;20019;-71
2023/01/01 07:26:46;;;;;;;8.40;0.98;;;11.10;99.90;;;;;;7404547;19;19915;-71
2023/01/01 07:29:15;;;;;;;4.45;1.02;;;11.20;99.90;;;;;;7406131;19;19919;-71
2023/01/01 07:31:45;;;;;;;3.50;0.70;;;11.10;99.90;;;;;;7404153;19;19911;-71
2023/01/01 07:34:19;;;;;;;6.40;0.80;;;11.10;99.90;;;;;;7404020;19;20324;-71
2023/01/01 07:36:48;;;;;;;6.68;1.23;;;11.00;99.90;;;;;;7404802;19;19925;-71
2023/01/01 07:39:17;;;;;;;3.85;0.77;;;11.10;99.90;;;;;;7403963;19;19907;-71
2023/01/01 07:41:46;;;;;;;4.63;0.80;;;11.10;99.90;;;;;;7402973;19;19926;-71
2023/01/01 07:44:17;;;;;;;5.78;1.05;;;10.90;99.90;;;;;;7401696;19;19915;-70
2023/01/01 07:46:48;;;;;;;3.55;1.00;;;11.10;99.90;;;;;;7403887;19;20305;-71
2023/01/01 07:49:20;;;;;;;7.22;0.70;;;11.00;99.90;;;;;;7403759;19;19982;-70
2023/01/01 07:51:51;;;;;;;6.97;0.85;;;11.00;99.90;;;;;;7403595;19;19918;-71
2023/01/01 07:54:20;;;;;;;3.00;1.00;;;11.00;99.90;;;;;;7403499;19;20015;-70
2023/01/01 07:56:49;;;;;;;4.57;1.10;;;11.00;99.90;;;;;;7403201;19;19918;-70
2023/01/01 07:59:18;;;;;;;8.07;1.58;;;10.90;99.90;;;;;;7406602;19;19930;-71
2023/01/01 08:01:47;;;;;;;5.30;1.08;;;10.90;99.90;;;;;;7403797;19;20341;-70
2023/01/01 08:04:19;;;;;;;4.25;0.80;;;11.00;99.90;;;;;;7402750;19;19915;-71
2023/01/01 08:06:48;;;;;;;5.55;1.00;;;10.80;99.90;;;;;;7403354;19;19914;-71
2023/01/01 08:09:22;;;;;;;5.78;1.27;;;10.90;99.90;;;;;;7403518;19;19910;-71
2023/01/01 08:11:52;;;;;;;8.40;1.27;;;10.80;99.90;;;;;;7403443;19;19942;-71
2023/01/01 08:14:21;;;;;;;4.78;0.77;;;10.70;99.90;;;;;;7403332;19;20341;-71
2023/01/01 08:16:49;;;;;;;6.43;1.60;;;10.90;99.90;;;;;;7402887;19;20267;-70
2023/01/01 08:19:21;;;;;;;9.95;1.40;;;10.80;99.90;;;;;;7402892;19;19911;-70
2023/01/01 08:21:50;;;;;;;6.20;1.67;;;10.70;99.90;;;;;;7402575;19;19919;-71
2023/01/01 08:24:20;;;;;;;6.28;0.98;;;10.80;99.90;;;;;;7403191;19;20321;-70
2023/01/01 08:26:51;;;;;;;6.28;1.15;;;10.80;99.90;;;;;;7402803;19;19919;-71
2023/01/01 08:29:21;;;;;;;4.68;0.70;;;10.70;99.90;;;;;;7406731;19;20583;-71
2023/01/01 08:31:50;;;;;;;9.27;1.55;;;10.80;99.90;;;;;;7402535;19;20237;-70
2023/01/01 08:34:21;;;;;;;5.03;1.25;;;10.80;99.90;;;;;;7402493;19;19911;-71
2023/01/01 08:36:50;;;;;;;8.65;1.10;;;10.90;99.90;;;;;;7402215;19;19918;-71
2023/01/01 08:39:19;;;;;;;6.75;1.08;;;10.70;99.90;;;;;;7402173;19;19915;-71
2023/01/01 08:41:48;;;;;;;6.93;1.15;;;10.80;99.90;;;;;;7400837;19;19919;-71
2023/01/01 08:44:24;;;;;;;6.55;1.02;;;10.70;99.90;;;;;;7400457;19;20276;-71
2023/01/01 08:46:54;;;;;;;6.07;1.60;;;10.70;99.90;;;;;;7402149;19;19919;-71
2023/01/01 08:49:32;;;;;;;7.63;1.40;;;10.60;99.90;;;;;;7401658;19;20320;-71
2023/01/01 08:52:01;;;;;;;6.20;1.08;;;10.80;99.90;;;;;;7402138;19;19919;-71
2023/01/01 08:54:35;;;;;;;6.40;1.10;;;10.70;99.90;;;;;;7401584;19;19921;-71
2023/01/01 08:57:04;;;;;;;5.18;0.80;;;10.70;99.90;;;;;;7404463;19;19989;-71
2023/01/01 08:59:33;;;;;;;6.53;1.30;;;10.70;99.90;;;;;;7411330;19;19974;-71
2023/01/01 09:02:01;;;;;;;6.32;2.10;;;10.60;99.90;;;;;;7408578;19;19919;-71
2023/01/01 09:04:33;;;;;;;9.60;1.45;;;9.90;99.90;;;;;;7407623;19;19919;-70
2023/01/01 09:07:02;;;;;;;9.18;1.42;;;10.70;99.90;;;;;;7408449;19;19914;-70
2023/01/01 09:09:31;;;;;;;7.63;1.55;;;10.60;99.90;;;;;;7407757;19;19918;-70
2023/01/01 09:12:04;;;;;;;8.15;1.38;;;10.70;99.90;;;;;;7408177;19;19919;-71
2023/01/01 09:14:34;;;;;;;4.13;1.45;;;10.60;99.90;;;;;;7408440;19;19928;-71
2023/01/01 09:17:03;;;;;;;6.10;1.55;;;10.80;99.90;;;;;;7408625;19;19927;-70
2023/01/01 09:19:35;;;;;;;8.30;1.75;;;10.80;99.90;;;;;;7407732;19;20332;-70
2023/01/01 09:22:04;;;;;;;8.30;1.30;;;10.70;99.90;;;;;;7408183;19;19993;-71
2023/01/01 09:24:33;;;;;;;9.85;1.50;;;10.70;99.90;;;;;;7407903;19;19914;-70
2023/01/01 09:27:03;;;;;;;8.40;1.67;;;10.70;99.90;;;;;;7410022;19;19914;-70
2023/01/01 09:29:32;;;;;;;4.88;1.30;;;10.70;99.90;;;;;;7407870;19;19918;-70
2023/01/01 09:32:01;;;;;;;7.93;1.38;;;10.60;99.90;;;;;;7407552;19;19994;-70
2023/01/01 09:34:30;;;;;;;9.52;2.13;;;10.70;99.90;;;;;;7407297;19;19919;-70
2023/01/01 09:37:01;;;;;;;5.88;1.10;;;10.80;99.90;;;;;;7407022;19;19938;-70
2023/01/01 09:39:31;;;;;;;9.98;1.55;;;10.70;99.90;;;;;;7407669;19;20324;-70
2023/01/01 09:42:12;;;;;;;7.55;1.33;;;10.70;99.90;;;;;;7404573;19;20305;-70
2023/01/01 09:45:00;;;;;;;8.80;1.42;;;10.70;99.90;;;;;;7405920;19;19940;-70
2023/01/01 09:47:34;;;;;;;15.63;2.30;;;10.70;99.90;;;;;;7407492;19;19919;-70
2023/01/01 09:50:15;;;;;;;10.70;1.20;;;10.60;99.90;;;;;;7406995;19;19922;-70
2023/01/01 09:52:55;;;;;;;15.30;1.80;;;10.60;99.90;;;;;;7407678;19;19929;-71
2023/01/01 09:55:30;;;;;;;5.88;1.08;;;10.70;99.90;;;;;;7407027;19;19915;-70
2023/01/01 09:58:00;;;;;;;11.88;1.50;;;10.70;99.90;;;;;;7407711;19;19928;-70
2023/01/01 10:00:32;;;;;;;10.52;1.30;;;10.60;99.90;;;;;;7406219;19;19915;-70
2023/01/01 10:03:16;;;;;;;12.23;1.40;;;10.70;99.90;;;;;;7406755;19;19927;-70
2023/01/01 10:05:53;;;;;;;6.28;1.20;;;10.70;99.90;;;;;;7406939;19;19925;-70
2023/01/01 10:08:48;;;;;;;8.57;1.48;;;10.70;99.90;;;;;;7406518;19;19919;-70
2023/01/01 10:11:25;;;;;;;5.88;1.00;;;10.70;99.90;;;;;;7407007;19;19942;-70
2023/01/01 10:13:58;;;;;;;9.30;1.52;;;10.60;99.90;;;;;;7406211;19;20256;-70
2023/01/01 10:16:34;;;;;;;12.25;1.60;;;10.70;99.90;;;;;;7406416;19;19938;-70
2023/01/01 10:19:14;;;;;;;6.28;1.38;;;10.70;99.90;;;;;;7406323;19;20357;-70
2023/01/01 10:21:45;;;;;;;7.85;1.92;;;10.70;99.90;;;;;;7404647;19;19911;-69
2023/01/01 10:24:32;;;;;;;10.48;1.67;;;10.70;99.90;;;;;;7410746;19;19918;-70
2023/01/01 10:27:08;;;;;;;9.05;1.13;;;10.60;99.90;;;;;;7406178;19;19948;-71
2023/01/01 10:29:45;;;;;;;5.80;1.08;;;10.70;99.90;;;;;;7406303;19;19938;-71
2023/01/01 10:32:19;;;;;;;;;;;10.60;99.90;;;;;;7408464;19;20237;-71
2023/01/01 10:34:49;;;;;;;5.95;1.20;;;10.60;99.90;;;;;;7405525;19;19915;-70
2023/01/01 10:37:19;;;;;;;6.45;1.27;;;10.60;99.90;;;;;;7405604;19;19919;-71
2023/01/01 10:39:51;;;;;;;7.28;1.75;;;10.60;99.90;;;;;;7406258;19;19926;-71
2023/01/01 10:42:20;;;;;;;9.20;1.40;;;10.60;99.90;;;;;;7406200;19;19931;-70
2023/01/01 10:44:53;;;;;;;8.55;1.38;;;10.70;99.90;;;;;;7404668;19;20262;-70
2023/01/01 10:47:27;;;;;;;11.60;1.38;;;10.60;99.90;;;;;;7405565;19;20344;-70
2023/01/01 10:49:59;;;;;;;6.50;1.52;;;10.60;99.90;;;;;;7405201;19;20062;-70
2023/01/01 10:52:37;;;;;;;7.35;1.30;;;10.40;99.90;;;;;;7405417;19;20344;-71
2023/01/01 10:55:20;;;;;;;13.82;1.20;;;10.50;99.90;;;;;;7405529;19;19923;-71
2023/01/01 10:57:49;;;;;;;10.55;1.08;;;10.60;99.90;;;;;;7405332;19;19926;-71
2023/01/01 11:00:26;;;;;;;11.32;1.42;;;10.40;99.90;;;;;;7404588;19;19941;-71
2023/01/01 11:03:15;;;;;;;5.45;0.98;;;10.60;99.90;;;;;;7404301;19;19990;-71
2023/01/01 11:06:06;;;;;;;10.45;1.20;;;10.50;99.90;;;;;;7404818;19;19915;-70
2023/01/01 11:08:37;;;;;;;8.75;1.13;;;10.50;99.90;;;;;;7404529;19;19918;-70
2023/01/01 11:11:20;;;;;;;8.32;1.02;;;10.50;99.90;;;;;;7404421;19;19919;-70
2023/01/01 11:13:52;;;;;;;8.50;1.25;;;10.70;99.90;;;;;;7405210;19;19919;-69
2023/01/01 11:16:22;;;;;;;9.88;1.77;;;10.50;99.90;;;;;;7404863;19;19922;-71
2023/01/01 11:18:52;;;;;;;10.93;1.92;;;10.50;99.90;;;;;;7403072;19;19915;-71
2023/01/01 11:21:24;;;;;;;6.35;0.82;;;10.50;99.90;;;;;;7403481;19;19978;-70
2023/01/01 11:24:10;;;;;;;6.60;1.00;;;10.50;99.90;;;;;;7404868;19;19933;-70
2023/01/01 11:26:42;;;;;;;12.70;2.15;;;10.60;99.90;;;;;;7407181;19;19929;-70
2023/01/01 11:29:23;;;;;;;7.03;1.05;;;10.60;99.90;;;;;;7403758;19;19918;-70
2023/01/01 11:31:53;;;;;;;4.07;1.30;;;10.50;99.90;;;;;;7404528;19;20320;-70
2023/01/01 11:34:32;;;;;;;9.40;0.82;;;10.40;99.90;;;;;;7403921;19;19914;-71
2023/01/01 11:37:23;;;;;;;10.10;1.75;;;10.50;99.90;;;;;;7404575;19;20344;-70
2023/01/01 11:39:55;;;;;;;6.65;1.10;;;10.60;99.90;;;;;;7404082;19;19922;-70
2023/01/01 11:42:28;;;;;;;7.72;1.00;;;10.60;99.90;;;;;;7402878;19;19944;-70
2023/01/01 11:45:00;;;;;;;7.70;2.08;;;10.70;99.90;;;;;;7403132;19;19992;-70
2023/01/01 11:47:31;;;;;;;7.13;1.23;;;10.70;99.90;;;;;;7403885;19;19923;-70
2023/01/01 11:50:04;;;;;;;5.78;1.20;;;10.70;99.90;;;;;;7403313;19;19925;-70
2023/01/01 11:52:41;;;;;;;8.68;1.33;;;10.60;99.90;;;;;;7403610;19;19914;-71
2023/01/01 11:55:28;;;;;;;9.85;1.63;;;10.70;99.90;;;;;;7406189;19;19985;-70
2023/01/01 11:58:10;;;;;;;9.57;1.35;;;10.60;99.90;;;;;;7403636;19;20329;-71
2023/01/01 12:00:39;;;;;;;12.05;1.77;;;10.70;99.90;;;;;;7402842;19;19915;-70
2023/01/01 12:03:19;;;;;;;10.23;0.95;;;10.80;99.90;;;;;;7403492;19;19914;-70
2023/01/01 12:05:52;;;;;;;4.75;1.02;;;10.80;99.90;;;;;;7403172;19;20286;-70
2023/01/01 12:08:33;;;;;;;13.32;1.10;;;10.90;99.90;;;;;;7403174;19;19922;-71
2023/01/01 12:11:09;;;;;;;8.43;1.70;;;11.00;99.90;;;;;;7403039;19;19911;-71
2023/01/01 12:13:51;;;;;;;4.38;1.10;;;11.00;99.90;;;;;;7402959;19;19966;-71
2023/01/01 12:16:25;;;;;;;9.07;1.27;;;11.20;99.90;;;;;;7403125;19;19926;-70
2023/01/01 12:19:03;;;;;;;11.85;1.67;;;11.10;99.90;;;;;;7403342;19;19923;-70
2023/01/01 12:21:57;;;;;;;6.25;2.10;;;11.10;99.90;;;;;;7400874;19;19918;-70
2023/01/01 12:24:47;;;;;;;6.05;1.05;;;11.20;99.90;;;;;;7403056;19;19914;-71
2023/01/01 12:27:21;;;;;;;11.43;1.70;;;11.40;99.90;;;;;;7402758;19;19914;-70
2023/01/01 12:30:07;;;;;;;7.97;1.10;;;11.40;99.90;;;;;;7402305;19;19958;-71
2023/01/01 12:32:50;;;;;;;7.03;1.85;;;11.50;99.90;;;;;;7409271;19;19966;-70
2023/01/01 12:35:26;;;;;;;;;;;11.50;99.90;;;;;;7411969;19;19915;-71
2023/01/01 12:38:08;;;;;;;9.50;1.33;;;11.30;99.90;;;;;;7408555;19;20337;-71
2023/01/01 12:40:46;;;;;;;13.13;1.67;;;11.30;99.90;;;;;;7407630;19;19919;-71
2023/01/01 12:43:20;;;;;;;16.40;2.22;;;11.20;99.90;;;;;;7409288;19;20288;-70
2023/01/01 12:46:19;;;;;;;9.10;2.00;;;11.10;99.90;;;;;;7408646;19;20298;-71
2023/01/01 12:49:18;;;;;;;4.70;1.40;;;11.00;99.90;;;;;;7409058;19;19910;-71
2023/01/01 12:52:18;;;;;;;10.27;1.98;;;11.10;99.90;;;;;;7407055;19;19914;-71
2023/01/01 12:55:25;;;;;;;;;;;11.10;99.90;;;;;;7413698;19;19922;-71
2023/01/01 12:57:58;;;;;;;;;;;11.10;99.90;;;;;;7411106;19;20252;-71
2023/01/01 13:00:28;;;;;;;10.73;1.90;;;11.10;99.90;;;;;;7409168;19;19919;-70
2023/01/01 13:03:06;;;;;;;11.63;1.40;;;11.10;99.90;;;;;;7405321;19;19918;-71
2023/01/01 13:05:39;;;;;;;8.43;1.35;;;11.10;99.90;;;;;;7408505;19;19929;-70
2023/01/01 13:08:09;;;;;;;10.55;1.10;;;11.10;99.90;;;;;;7408080;19;20257;-72
2023/01/01 13:10:40;;;;;;;9.32;1.55;;;11.00;99.90;;;;;;7407886;19;20352;-70
2023/01/01 13:13:10;;;;;;;9.90;1.20;;;11.10;99.90;;;;;;7408064;19;20335;-70
2023/01/01 13:15:50;;;;;;;6.40;0.90;;;11.10;99.90;;;;;;7407920;19;19986;-70